UPS1075 KEWR-KRFD
Flight info
| Callsign | UPS1075 |
|---|---|
| Flight time | 1h 54m |
| Altitude | 32000 |
| Route | DCT COATE Q436 RAAKK Q438 JAAJA DCT WEBOR DCT HIGUH EMMAS1 |
| Aircraft | A306/H-SDE3FGHIRWY/LB1 |
Departure
| Time | 2026-04-23 14:03 |
|---|---|
| Airport | Newark Liberty International Airport (KEWR) |
Arrival
| Time | 2026-04-23 15:57 |
|---|---|
| Airport | Chicago Rockford International Airport (KRFD) |
| Time | Latitude | Longitude | Altitude | Speed | Heading |
|---|---|---|---|---|---|
| 2026-04-23 13:32 | 40.70464 | -74.17535 | 28 ft | 0 kts | 316° |
| 2026-04-23 13:47 | 40.70455 | -74.17523 | 28 ft | 4 kts | 316° |
| 2026-04-23 13:47 | 40.70439 | -74.17502 | 28 ft | 3 kts | 315° |
| 2026-04-23 13:47 | 40.70425 | -74.17475 | 27 ft | 4 kts | 271° |
| 2026-04-23 13:47 | 40.70432 | -74.17452 | 28 ft | 4 kts | 195° |
| 2026-04-23 13:48 | 40.70457 | -74.17449 | 27 ft | 3 kts | 182° |
| 2026-04-23 13:48 | 40.70459 | -74.17448 | 28 ft | 0 kts | 182° |
| 2026-04-23 13:51 | 40.70408 | -74.17451 | 27 ft | 21 kts | 184° |
| 2026-04-23 13:51 | 40.70311 | -74.17432 | 27 ft | 7 kts | 109° |
| 2026-04-23 13:52 | 40.70327 | -74.17383 | 28 ft | 6 kts | 61° |
| 2026-04-23 13:52 | 40.70342 | -74.17339 | 28 ft | 6 kts | 75° |
| 2026-04-23 13:52 | 40.70336 | -74.17170 | 28 ft | 23 kts | 96° |
| 2026-04-23 13:52 | 40.70325 | -74.16963 | 28 ft | 22 kts | 92° |
| 2026-04-23 13:53 | 40.70311 | -74.16774 | 28 ft | 20 kts | 95° |
| 2026-04-23 13:53 | 40.70295 | -74.16593 | 28 ft | 20 kts | 104° |
| 2026-04-23 13:53 | 40.70239 | -74.16466 | 28 ft | 14 kts | 160° |
| 2026-04-23 13:53 | 40.70152 | -74.16471 | 27 ft | 12 kts | 185° |
| 2026-04-23 13:54 | 40.70070 | -74.16492 | 27 ft | 12 kts | 204° |
| 2026-04-23 13:54 | 40.69936 | -74.16580 | 27 ft | 26 kts | 205° |
| 2026-04-23 13:54 | 40.69779 | -74.16677 | 27 ft | 24 kts | 208° |
| 2026-04-23 13:54 | 40.69626 | -74.16749 | 28 ft | 23 kts | 185° |
| 2026-04-23 13:55 | 40.69508 | -74.16790 | 29 ft | 14 kts | 217° |
| 2026-04-23 13:55 | 40.69440 | -74.16870 | 29 ft | 13 kts | 222° |
| 2026-04-23 13:55 | 40.69307 | -74.16982 | 28 ft | 28 kts | 204° |
| 2026-04-23 13:55 | 40.69138 | -74.17088 | 28 ft | 26 kts | 206° |
| 2026-04-23 13:56 | 40.68979 | -74.17188 | 28 ft | 24 kts | 205° |
| 2026-04-23 13:56 | 40.68807 | -74.17296 | 29 ft | 28 kts | 212° |
| 2026-04-23 13:56 | 40.68635 | -74.17404 | 29 ft | 26 kts | 207° |
| 2026-04-23 13:56 | 40.68474 | -74.17506 | 29 ft | 25 kts | 203° |
| 2026-04-23 13:57 | 40.68322 | -74.17599 | 28 ft | 24 kts | 201° |
| 2026-04-23 13:57 | 40.68180 | -74.17699 | 28 ft | 22 kts | 204° |
| 2026-04-23 13:57 | 40.68043 | -74.17759 | 28 ft | 18 kts | 161° |
| 2026-04-23 13:57 | 40.67981 | -74.17626 | 29 ft | 17 kts | 121° |
| 2026-04-23 13:58 | 40.67985 | -74.17503 | 27 ft | 13 kts | 35° |
| 2026-04-23 13:58 | 40.68065 | -74.17455 | 27 ft | 12 kts | 22° |
| 2026-04-23 13:58 | 40.68131 | -74.17425 | 27 ft | 2 kts | 1° |
| 2026-04-23 13:58 | 40.68136 | -74.17429 | 27 ft | 0 kts | 337° |
| 2026-04-23 13:59 | 40.68170 | -74.17501 | 27 ft | 24 kts | 289° |
| 2026-04-23 14:00 | 40.68201 | -74.17642 | 28 ft | 18 kts | 261° |
| 2026-04-23 14:00 | 40.68085 | -74.17758 | 28 ft | 15 kts | 204° |
| 2026-04-23 14:00 | 40.67967 | -74.17825 | 28 ft | 24 kts | 204° |
| 2026-04-23 14:00 | 40.67815 | -74.17928 | 28 ft | 24 kts | 211° |
| 2026-04-23 14:01 | 40.67668 | -74.18005 | 28 ft | 18 kts | 208° |
| 2026-04-23 14:01 | 40.67603 | -74.18037 | 28 ft | 0 kts | 175° |
| 2026-04-23 14:01 | 40.67582 | -74.18022 | 28 ft | 11 kts | 139° |
| 2026-04-23 14:02 | 40.67566 | -74.17943 | 29 ft | 7 kts | 68° |
| 2026-04-23 14:02 | 40.67598 | -74.17909 | 29 ft | 2 kts | 26° |
| 2026-04-23 14:02 | 40.67605 | -74.17905 | 29 ft | 9 kts | 24° |
| 2026-04-23 14:02 | 40.67778 | -74.17792 | 28 ft | 56 kts | 25° |
| 2026-04-23 14:03 | 40.68359 | -74.17421 | 30 ft | 126 kts | 25° |
| 2026-04-23 14:03 | 40.69326 | -74.16805 | 104 ft | 177 kts | 26° |
| 2026-04-23 14:03 | 40.70511 | -74.16056 | 583 ft | 205 kts | 25° |
| 2026-04-23 14:03 | 40.71831 | -74.15242 | 1484 ft | 213 kts | 24° |
| 2026-04-23 14:04 | 40.73164 | -74.14290 | 2263 ft | 225 kts | 27° |
| 2026-04-23 14:04 | 40.74567 | -74.13332 | 3021 ft | 233 kts | 22° |
| 2026-04-23 14:04 | 40.76075 | -74.12429 | 3664 ft | 240 kts | 21° |
| 2026-04-23 14:04 | 40.77664 | -74.11747 | 4512 ft | 239 kts | 8° |
| 2026-04-23 14:05 | 40.79293 | -74.11799 | 5340 ft | 236 kts | 345° |
| 2026-04-23 14:05 | 40.80838 | -74.12519 | 6091 ft | 241 kts | 335° |
| 2026-04-23 14:05 | 40.82304 | -74.13667 | 6880 ft | 250 kts | 315° |
| 2026-04-23 14:05 | 40.83039 | -74.15717 | 8116 ft | 255 kts | 281° |
| 2026-04-23 14:06 | 40.82956 | -74.18067 | 9357 ft | 257 kts | 272° |
| 2026-04-23 14:06 | 40.83225 | -74.20352 | 10405 ft | 253 kts | 295° |
| 2026-04-23 14:06 | 40.84102 | -74.22444 | 10957 ft | 271 kts | 305° |
| 2026-04-23 14:06 | 40.85290 | -74.24495 | 11322 ft | 293 kts | 310° |
| 2026-04-23 14:07 | 40.86675 | -74.26589 | 11683 ft | 312 kts | 311° |
| 2026-04-23 14:07 | 40.89697 | -74.31043 | 12761 ft | 334 kts | 311° |
| 2026-04-23 14:07 | 40.91221 | -74.33377 | 13544 ft | 337 kts | 310° |
| 2026-04-23 14:08 | 40.92733 | -74.35755 | 14293 ft | 339 kts | 309° |
| 2026-04-23 14:08 | 40.94245 | -74.38166 | 14926 ft | 343 kts | 309° |
| 2026-04-23 14:08 | 40.95770 | -74.40615 | 15591 ft | 347 kts | 309° |
| 2026-04-23 14:08 | 40.97282 | -74.43049 | 16261 ft | 349 kts | 309° |
| 2026-04-23 14:09 | 40.98852 | -74.45585 | 17002 ft | 352 kts | 309° |
| 2026-04-23 14:09 | 41.00408 | -74.48102 | 17705 ft | 355 kts | 309° |
| 2026-04-23 14:09 | 41.01978 | -74.50641 | 18406 ft | 358 kts | 310° |
| 2026-04-23 14:09 | 41.03559 | -74.53197 | 18978 ft | 361 kts | 310° |
| 2026-04-23 14:10 | 41.05136 | -74.55745 | 19507 ft | 363 kts | 310° |
| 2026-04-23 14:10 | 41.06742 | -74.58343 | 20072 ft | 366 kts | 310° |
| 2026-04-23 14:10 | 41.08381 | -74.60993 | 20634 ft | 368 kts | 310° |
| 2026-04-23 14:10 | 41.09988 | -74.63596 | 21183 ft | 371 kts | 310° |
| 2026-04-23 14:11 | 41.11625 | -74.66250 | 21741 ft | 373 kts | 310° |
| 2026-04-23 14:11 | 41.13234 | -74.69021 | 22245 ft | 376 kts | 307° |
| 2026-04-23 14:11 | 41.14639 | -74.71917 | 22765 ft | 379 kts | 304° |
| 2026-04-23 14:11 | 41.16014 | -74.74918 | 23268 ft | 382 kts | 303° |
| 2026-04-23 14:12 | 41.17382 | -74.78011 | 23728 ft | 385 kts | 303° |
| 2026-04-23 14:12 | 41.18723 | -74.81099 | 24123 ft | 387 kts | 303° |
| 2026-04-23 14:12 | 41.20045 | -74.84164 | 24539 ft | 388 kts | 303° |
| 2026-04-23 14:12 | 41.21388 | -74.87282 | 24946 ft | 390 kts | 303° |
| 2026-04-23 14:13 | 41.22739 | -74.90417 | 25310 ft | 392 kts | 303° |
| 2026-04-23 14:13 | 41.24116 | -74.93605 | 25693 ft | 393 kts | 303° |
| 2026-04-23 14:13 | 41.25482 | -74.96764 | 26049 ft | 395 kts | 304° |
| 2026-04-23 14:13 | 41.26854 | -74.99935 | 26381 ft | 397 kts | 304° |
| 2026-04-23 14:14 | 41.28231 | -75.03119 | 26708 ft | 398 kts | 304° |
| 2026-04-23 14:14 | 41.29615 | -75.06322 | 27019 ft | 400 kts | 304° |
| 2026-04-23 14:14 | 41.31005 | -75.09539 | 27221 ft | 403 kts | 304° |
| 2026-04-23 14:14 | 41.32402 | -75.12786 | 27478 ft | 406 kts | 304° |
| 2026-04-23 14:15 | 41.33803 | -75.16044 | 27780 ft | 407 kts | 304° |
| 2026-04-23 14:15 | 41.35215 | -75.19328 | 28113 ft | 408 kts | 304° |
| 2026-04-23 14:15 | 41.36618 | -75.22597 | 28557 ft | 406 kts | 304° |
| 2026-04-23 14:15 | 41.38012 | -75.25854 | 29006 ft | 404 kts | 305° |
| 2026-04-23 14:16 | 41.39401 | -75.29098 | 29460 ft | 402 kts | 305° |
| 2026-04-23 14:16 | 41.40782 | -75.32319 | 29902 ft | 400 kts | 305° |
| 2026-04-23 14:16 | 41.42141 | -75.35489 | 30292 ft | 399 kts | 305° |
| 2026-04-23 14:16 | 41.43529 | -75.38734 | 30666 ft | 398 kts | 305° |
| 2026-04-23 14:17 | 41.44877 | -75.41894 | 31015 ft | 397 kts | 305° |
| 2026-04-23 14:17 | 41.46254 | -75.45136 | 31297 ft | 397 kts | 305° |
| 2026-04-23 14:17 | 41.47525 | -75.48425 | 31582 ft | 402 kts | 300° |
| 2026-04-23 14:17 | 41.48605 | -75.51872 | 31935 ft | 403 kts | 298° |
| 2026-04-23 14:18 | 41.49640 | -75.55333 | 32054 ft | 397 kts | 298° |
| 2026-04-23 14:18 | 41.50589 | -75.58648 | 32051 ft | 377 kts | 298° |
| 2026-04-23 14:18 | 41.52433 | -75.65135 | 32066 ft | 377 kts | 298° |
| 2026-04-23 14:19 | 41.54354 | -75.71803 | 32065 ft | 393 kts | 298° |
| 2026-04-23 14:19 | 41.56340 | -75.78716 | 32031 ft | 404 kts | 298° |
| 2026-04-23 14:20 | 41.58332 | -75.85714 | 32066 ft | 407 kts | 297° |
| 2026-04-23 14:20 | 41.60345 | -75.92844 | 32064 ft | 407 kts | 297° |
| 2026-04-23 14:21 | 41.62351 | -75.99926 | 32064 ft | 407 kts | 297° |
| 2026-04-23 14:21 | 41.64350 | -76.07011 | 32064 ft | 408 kts | 297° |
| 2026-04-23 14:22 | 41.66345 | -76.14102 | 32069 ft | 407 kts | 297° |
| 2026-04-23 14:22 | 41.68320 | -76.21164 | 32069 ft | 408 kts | 297° |
| 2026-04-23 14:23 | 41.70311 | -76.28269 | 32069 ft | 407 kts | 297° |
| 2026-04-23 14:23 | 41.72299 | -76.35367 | 32072 ft | 408 kts | 297° |
| 2026-04-23 14:24 | 41.74274 | -76.42477 | 32075 ft | 407 kts | 297° |
| 2026-04-23 14:24 | 41.76251 | -76.49587 | 32076 ft | 408 kts | 297° |
| 2026-04-23 14:25 | 41.78229 | -76.56711 | 32079 ft | 408 kts | 297° |
| 2026-04-23 14:25 | 41.80202 | -76.63847 | 32079 ft | 408 kts | 296° |
| 2026-04-23 14:26 | 41.82170 | -76.70993 | 32082 ft | 409 kts | 296° |
| 2026-04-23 14:26 | 41.84150 | -76.78198 | 32080 ft | 409 kts | 296° |
| 2026-04-23 14:27 | 41.86110 | -76.85356 | 32081 ft | 409 kts | 296° |
| 2026-04-23 14:27 | 41.88049 | -76.92459 | 32086 ft | 408 kts | 296° |
| 2026-04-23 14:28 | 41.89999 | -76.99612 | 32086 ft | 409 kts | 296° |
| 2026-04-23 14:28 | 41.91940 | -77.06782 | 32086 ft | 409 kts | 296° |
| 2026-04-23 14:29 | 41.93871 | -77.13955 | 32085 ft | 408 kts | 296° |
| 2026-04-23 14:29 | 41.95804 | -77.21138 | 32090 ft | 409 kts | 296° |
| 2026-04-23 14:30 | 41.97730 | -77.28318 | 32097 ft | 410 kts | 296° |
| 2026-04-23 14:30 | 41.99664 | -77.35541 | 32088 ft | 411 kts | 296° |
| 2026-04-23 14:31 | 42.01599 | -77.42764 | 32084 ft | 410 kts | 296° |
| 2026-04-23 14:31 | 42.03560 | -77.49974 | 32102 ft | 411 kts | 296° |
| 2026-04-23 14:32 | 42.05525 | -77.57183 | 32087 ft | 411 kts | 296° |
| 2026-04-23 14:32 | 42.07486 | -77.64410 | 32092 ft | 412 kts | 296° |
| 2026-04-23 14:33 | 42.09122 | -77.70455 | 32096 ft | 413 kts | 296° |
| 2026-04-23 14:33 | 42.11086 | -77.77736 | 32096 ft | 414 kts | 296° |
| 2026-04-23 14:34 | 42.13040 | -77.85019 | 32103 ft | 413 kts | 296° |
| 2026-04-23 14:34 | 42.14990 | -77.92311 | 32098 ft | 414 kts | 296° |
| 2026-04-23 14:35 | 42.16936 | -77.99606 | 32097 ft | 414 kts | 296° |
| 2026-04-23 14:35 | 42.18885 | -78.06926 | 32105 ft | 415 kts | 296° |
| 2026-04-23 14:36 | 42.20836 | -78.14263 | 32105 ft | 416 kts | 296° |
| 2026-04-23 14:36 | 42.22778 | -78.21606 | 32105 ft | 416 kts | 296° |
| 2026-04-23 14:37 | 42.24711 | -78.28969 | 32108 ft | 416 kts | 295° |
| 2026-04-23 14:37 | 42.26565 | -78.36370 | 32110 ft | 416 kts | 295° |
| 2026-04-23 14:38 | 42.28392 | -78.43794 | 32109 ft | 417 kts | 295° |
| 2026-04-23 14:38 | 42.30222 | -78.51220 | 32109 ft | 417 kts | 295° |
| 2026-04-23 14:39 | 42.32055 | -78.58652 | 32099 ft | 417 kts | 295° |
| 2026-04-23 14:39 | 42.33885 | -78.66088 | 32096 ft | 417 kts | 294° |
| 2026-04-23 14:40 | 42.35711 | -78.73540 | 32081 ft | 419 kts | 294° |
| 2026-04-23 14:40 | 42.37540 | -78.81056 | 32086 ft | 421 kts | 294° |
| 2026-04-23 14:41 | 42.39368 | -78.88573 | 32082 ft | 421 kts | 294° |
| 2026-04-23 14:41 | 42.41205 | -78.96090 | 32089 ft | 421 kts | 294° |
| 2026-04-23 14:42 | 42.43051 | -79.03602 | 32094 ft | 421 kts | 294° |
| 2026-04-23 14:42 | 42.44897 | -79.11134 | 32099 ft | 422 kts | 294° |
| 2026-04-23 14:43 | 42.46744 | -79.18704 | 32101 ft | 424 kts | 293° |
| 2026-04-23 14:43 | 42.48586 | -79.26295 | 32101 ft | 424 kts | 293° |
| 2026-04-23 14:44 | 42.50424 | -79.33894 | 32099 ft | 424 kts | 293° |
| 2026-04-23 14:44 | 42.52261 | -79.41500 | 32098 ft | 425 kts | 293° |
| 2026-04-23 14:45 | 42.54092 | -79.49113 | 32108 ft | 426 kts | 293° |
| 2026-04-23 14:45 | 42.55922 | -79.56744 | 32093 ft | 424 kts | 293° |
| 2026-04-23 14:46 | 42.57743 | -79.64359 | 32092 ft | 424 kts | 293° |
| 2026-04-23 14:46 | 42.59555 | -79.71983 | 32089 ft | 425 kts | 292° |
| 2026-04-23 14:47 | 42.61069 | -79.79753 | 32076 ft | 431 kts | 284° |
| 2026-04-23 14:47 | 42.61636 | -79.87912 | 32095 ft | 436 kts | 279° |
| 2026-04-23 14:48 | 42.61995 | -79.96078 | 32095 ft | 436 kts | 278° |
| 2026-04-23 14:48 | 42.62323 | -80.04308 | 32095 ft | 437 kts | 278° |
| 2026-04-23 14:49 | 42.62661 | -80.12536 | 32099 ft | 437 kts | 278° |
| 2026-04-23 14:49 | 42.63008 | -80.20768 | 32099 ft | 437 kts | 278° |
| 2026-04-23 14:50 | 42.63353 | -80.29026 | 32100 ft | 439 kts | 278° |
| 2026-04-23 14:50 | 42.63693 | -80.37353 | 32101 ft | 439 kts | 278° |
| 2026-04-23 14:51 | 42.64024 | -80.45631 | 32103 ft | 439 kts | 278° |
| 2026-04-23 14:51 | 42.64343 | -80.53911 | 32089 ft | 439 kts | 277° |
| 2026-04-23 14:52 | 42.64631 | -80.62214 | 32105 ft | 441 kts | 277° |
| 2026-04-23 14:52 | 42.64910 | -80.70477 | 32105 ft | 441 kts | 277° |
| 2026-04-23 14:53 | 42.65190 | -80.78803 | 32108 ft | 442 kts | 277° |
| 2026-04-23 14:53 | 42.65463 | -80.87134 | 32108 ft | 442 kts | 277° |
| 2026-04-23 14:54 | 42.65728 | -80.95481 | 32109 ft | 443 kts | 276° |
| 2026-04-23 14:54 | 42.65991 | -81.03844 | 32110 ft | 443 kts | 276° |
| 2026-04-23 14:55 | 42.66243 | -81.12207 | 32111 ft | 443 kts | 276° |
| 2026-04-23 14:55 | 42.66494 | -81.20572 | 32111 ft | 443 kts | 276° |
| 2026-04-23 14:56 | 42.66717 | -81.28943 | 32085 ft | 444 kts | 275° |
| 2026-04-23 14:56 | 42.66814 | -81.37327 | 32100 ft | 444 kts | 274° |
| 2026-04-23 14:57 | 42.66871 | -81.45719 | 32102 ft | 445 kts | 274° |
| 2026-04-23 14:57 | 42.66930 | -81.54183 | 32095 ft | 444 kts | 274° |
| 2026-04-23 14:58 | 42.66992 | -81.62577 | 32095 ft | 444 kts | 274° |
| 2026-04-23 14:58 | 42.67051 | -81.70974 | 32086 ft | 445 kts | 274° |
| 2026-04-23 14:59 | 42.67105 | -81.79332 | 32086 ft | 445 kts | 274° |
| 2026-04-23 14:59 | 42.67153 | -81.87745 | 32086 ft | 445 kts | 274° |
| 2026-04-23 15:00 | 42.67194 | -81.96158 | 32083 ft | 445 kts | 274° |
| 2026-04-23 15:00 | 42.67227 | -82.04623 | 32083 ft | 445 kts | 274° |
| 2026-04-23 15:01 | 42.67255 | -82.13034 | 32075 ft | 445 kts | 274° |
| 2026-04-23 15:01 | 42.67279 | -82.21396 | 32075 ft | 445 kts | 273° |
| 2026-04-23 15:02 | 42.67294 | -82.29807 | 32075 ft | 445 kts | 273° |
| 2026-04-23 15:02 | 42.67303 | -82.38229 | 32075 ft | 445 kts | 273° |
| 2026-04-23 15:03 | 42.67308 | -82.46638 | 32069 ft | 446 kts | 273° |
| 2026-04-23 15:03 | 42.67304 | -82.55068 | 32061 ft | 446 kts | 273° |
| 2026-04-23 15:04 | 42.67294 | -82.63492 | 32058 ft | 446 kts | 273° |
| 2026-04-23 15:04 | 42.67279 | -82.71915 | 32054 ft | 446 kts | 272° |
| 2026-04-23 15:05 | 42.67258 | -82.80354 | 32048 ft | 446 kts | 272° |
| 2026-04-23 15:05 | 42.67233 | -82.88796 | 32067 ft | 446 kts | 272° |
| 2026-04-23 15:06 | 42.67200 | -82.97280 | 32050 ft | 446 kts | 272° |
| 2026-04-23 15:06 | 42.67160 | -83.05718 | 32053 ft | 446 kts | 272° |
| 2026-04-23 15:07 | 42.67113 | -83.14147 | 32054 ft | 446 kts | 272° |
| 2026-04-23 15:07 | 42.67060 | -83.22589 | 32047 ft | 447 kts | 271° |
| 2026-04-23 15:08 | 42.67002 | -83.31026 | 32059 ft | 447 kts | 271° |
| 2026-04-23 15:09 | 42.66905 | -83.43689 | 32045 ft | 447 kts | 271° |
| 2026-04-23 15:09 | 42.66831 | -83.52134 | 32039 ft | 447 kts | 271° |
| 2026-04-23 15:10 | 42.66764 | -83.59143 | 32037 ft | 446 kts | 271° |
| 2026-04-23 15:10 | 42.66665 | -83.68993 | 32041 ft | 446 kts | 271° |
| 2026-04-23 15:11 | 42.66572 | -83.77428 | 32041 ft | 446 kts | 271° |
| 2026-04-23 15:11 | 42.66474 | -83.85862 | 32030 ft | 446 kts | 271° |
| 2026-04-23 15:12 | 42.66371 | -83.94239 | 32035 ft | 446 kts | 270° |
| 2026-04-23 15:12 | 42.66260 | -84.02706 | 32030 ft | 446 kts | 270° |
| 2026-04-23 15:13 | 42.66143 | -84.11144 | 32038 ft | 446 kts | 270° |
| 2026-04-23 15:13 | 42.66038 | -84.18147 | 32038 ft | 446 kts | 270° |
| 2026-04-23 15:14 | 42.65910 | -84.26567 | 32026 ft | 446 kts | 270° |
| 2026-04-23 15:14 | 42.65776 | -84.34992 | 32033 ft | 446 kts | 270° |
| 2026-04-23 15:15 | 42.65639 | -84.43423 | 32029 ft | 446 kts | 270° |
| 2026-04-23 15:15 | 42.65492 | -84.51845 | 32030 ft | 446 kts | 270° |
| 2026-04-23 15:16 | 42.65338 | -84.60272 | 32023 ft | 446 kts | 270° |
| 2026-04-23 15:16 | 42.65176 | -84.68695 | 32020 ft | 446 kts | 269° |
| 2026-04-23 15:17 | 42.65031 | -84.77115 | 32019 ft | 446 kts | 269° |
| 2026-04-23 15:17 | 42.64854 | -84.85528 | 32016 ft | 446 kts | 269° |
| 2026-04-23 15:18 | 42.64667 | -84.93944 | 32017 ft | 446 kts | 269° |
| 2026-04-23 15:18 | 42.64481 | -85.02358 | 32016 ft | 446 kts | 269° |
| 2026-04-23 15:19 | 42.64291 | -85.10764 | 32009 ft | 445 kts | 269° |
| 2026-04-23 15:19 | 42.64097 | -85.19163 | 32007 ft | 445 kts | 269° |
| 2026-04-23 15:20 | 42.63893 | -85.27557 | 32006 ft | 445 kts | 269° |
| 2026-04-23 15:20 | 42.63685 | -85.35891 | 32007 ft | 444 kts | 268° |
| 2026-04-23 15:21 | 42.63473 | -85.44272 | 32005 ft | 444 kts | 268° |
| 2026-04-23 15:21 | 42.63253 | -85.52707 | 32000 ft | 444 kts | 268° |
| 2026-04-23 15:22 | 42.63030 | -85.61074 | 32005 ft | 443 kts | 268° |
| 2026-04-23 15:22 | 42.62803 | -85.69388 | 31998 ft | 443 kts | 268° |
| 2026-04-23 15:23 | 42.62560 | -85.77801 | 31999 ft | 443 kts | 268° |
| 2026-04-23 15:23 | 42.62317 | -85.86164 | 32005 ft | 443 kts | 268° |
| 2026-04-23 15:24 | 42.62063 | -85.94519 | 32003 ft | 443 kts | 268° |
| 2026-04-23 15:24 | 42.61807 | -86.02884 | 32010 ft | 443 kts | 268° |
| 2026-04-23 15:25 | 42.61485 | -86.11187 | 32001 ft | 444 kts | 262° |
| 2026-04-23 15:25 | 42.60267 | -86.19401 | 32008 ft | 444 kts | 259° |
| 2026-04-23 15:26 | 42.58997 | -86.27583 | 32010 ft | 443 kts | 258° |
| 2026-04-23 15:26 | 42.57701 | -86.35754 | 32012 ft | 443 kts | 258° |
| 2026-04-23 15:27 | 42.56396 | -86.43917 | 32004 ft | 443 kts | 258° |
| 2026-04-23 15:27 | 42.55084 | -86.52077 | 32009 ft | 442 kts | 258° |
| 2026-04-23 15:28 | 42.53766 | -86.60223 | 32011 ft | 442 kts | 258° |
| 2026-04-23 15:28 | 42.52433 | -86.68408 | 32007 ft | 442 kts | 258° |
| 2026-04-23 15:29 | 42.51122 | -86.76429 | 31895 ft | 428 kts | 258° |
| 2026-04-23 15:29 | 42.50487 | -86.80308 | 31642 ft | 417 kts | 258° |
| 2026-04-23 15:29 | 42.49860 | -86.84120 | 31387 ft | 411 kts | 258° |
| 2026-04-23 15:29 | 42.49245 | -86.87852 | 31004 ft | 402 kts | 258° |
| 2026-04-23 15:30 | 42.48641 | -86.91512 | 30533 ft | 395 kts | 258° |
| 2026-04-23 15:30 | 42.48046 | -86.95114 | 30054 ft | 389 kts | 257° |
| 2026-04-23 15:30 | 42.47459 | -86.98655 | 29524 ft | 383 kts | 257° |
| 2026-04-23 15:30 | 42.46879 | -87.02149 | 29049 ft | 377 kts | 257° |
| 2026-04-23 15:31 | 42.46306 | -87.05585 | 28605 ft | 372 kts | 257° |
| 2026-04-23 15:31 | 42.45737 | -87.08992 | 28190 ft | 371 kts | 257° |
| 2026-04-23 15:31 | 42.45167 | -87.12397 | 27741 ft | 370 kts | 257° |
| 2026-04-23 15:31 | 42.44600 | -87.15792 | 27292 ft | 369 kts | 257° |
| 2026-04-23 15:32 | 42.44034 | -87.19176 | 26848 ft | 368 kts | 257° |
| 2026-04-23 15:32 | 42.43469 | -87.22540 | 26408 ft | 366 kts | 256° |
| 2026-04-23 15:32 | 42.42904 | -87.25892 | 25962 ft | 365 kts | 256° |
| 2026-04-23 15:32 | 42.42341 | -87.29231 | 25529 ft | 363 kts | 256° |
| 2026-04-23 15:33 | 42.41779 | -87.32558 | 25089 ft | 362 kts | 256° |
| 2026-04-23 15:33 | 42.41212 | -87.35867 | 24652 ft | 361 kts | 255° |
| 2026-04-23 15:33 | 42.40648 | -87.39164 | 24199 ft | 359 kts | 256° |
| 2026-04-23 15:33 | 42.40096 | -87.42444 | 23737 ft | 356 kts | 256° |
| 2026-04-23 15:34 | 42.39543 | -87.45711 | 23252 ft | 356 kts | 255° |
| 2026-04-23 15:34 | 42.38989 | -87.48973 | 22792 ft | 355 kts | 255° |
| 2026-04-23 15:34 | 42.38435 | -87.52215 | 22335 ft | 353 kts | 255° |
| 2026-04-23 15:34 | 42.37882 | -87.55444 | 21872 ft | 351 kts | 255° |
| 2026-04-23 15:35 | 42.37334 | -87.58638 | 21432 ft | 348 kts | 255° |
| 2026-04-23 15:35 | 42.36788 | -87.61819 | 20984 ft | 346 kts | 255° |
| 2026-04-23 15:35 | 42.36243 | -87.64987 | 20533 ft | 344 kts | 255° |
| 2026-04-23 15:35 | 42.35702 | -87.68129 | 20092 ft | 342 kts | 255° |
| 2026-04-23 15:36 | 42.35163 | -87.71252 | 19649 ft | 340 kts | 255° |
| 2026-04-23 15:36 | 42.34630 | -87.74345 | 19198 ft | 336 kts | 255° |
| 2026-04-23 15:36 | 42.34101 | -87.77387 | 18765 ft | 331 kts | 255° |
| 2026-04-23 15:36 | 42.33574 | -87.80415 | 18343 ft | 330 kts | 255° |
| 2026-04-23 15:37 | 42.33049 | -87.83435 | 17876 ft | 330 kts | 256° |
| 2026-04-23 15:37 | 42.32529 | -87.86438 | 17426 ft | 328 kts | 255° |
| 2026-04-23 15:37 | 42.32182 | -87.88422 | 17131 ft | 326 kts | 255° |
| 2026-04-23 15:37 | 42.31489 | -87.92389 | 16558 ft | 323 kts | 255° |
| 2026-04-23 15:38 | 42.30972 | -87.95345 | 16154 ft | 325 kts | 255° |
| 2026-04-23 15:38 | 42.30554 | -87.98413 | 15929 ft | 340 kts | 263° |
| 2026-04-23 15:38 | 42.30768 | -88.01628 | 15687 ft | 349 kts | 283° |
| 2026-04-23 15:38 | 42.31650 | -88.04687 | 15507 ft | 350 kts | 292° |
| 2026-04-23 15:39 | 42.32686 | -88.07660 | 15312 ft | 349 kts | 293° |
| 2026-04-23 15:39 | 42.33732 | -88.10623 | 15134 ft | 349 kts | 293° |
| 2026-04-23 15:39 | 42.34768 | -88.13580 | 14918 ft | 347 kts | 293° |
| 2026-04-23 15:39 | 42.35792 | -88.16528 | 14735 ft | 346 kts | 292° |
| 2026-04-23 15:40 | 42.36813 | -88.19479 | 14547 ft | 346 kts | 292° |
| 2026-04-23 15:40 | 42.37827 | -88.22422 | 14349 ft | 345 kts | 292° |
| 2026-04-23 15:40 | 42.38837 | -88.25364 | 14170 ft | 344 kts | 292° |
| 2026-04-23 15:40 | 42.39844 | -88.28300 | 13984 ft | 344 kts | 292° |
| 2026-04-23 15:41 | 42.40849 | -88.31236 | 13794 ft | 344 kts | 292° |
| 2026-04-23 15:41 | 42.41850 | -88.34164 | 13581 ft | 343 kts | 292° |
| 2026-04-23 15:41 | 42.42851 | -88.37093 | 13398 ft | 342 kts | 292° |
| 2026-04-23 15:41 | 42.43848 | -88.40012 | 13209 ft | 342 kts | 292° |
| 2026-04-23 15:42 | 42.44844 | -88.42932 | 13031 ft | 341 kts | 292° |
| 2026-04-23 15:42 | 42.45835 | -88.45848 | 12838 ft | 340 kts | 291° |
| 2026-04-23 15:42 | 42.46825 | -88.48764 | 12648 ft | 340 kts | 291° |
| 2026-04-23 15:42 | 42.47813 | -88.51669 | 12461 ft | 339 kts | 291° |
| 2026-04-23 15:43 | 42.48796 | -88.54565 | 12273 ft | 338 kts | 291° |
| 2026-04-23 15:43 | 42.49779 | -88.57460 | 12086 ft | 338 kts | 291° |
| 2026-04-23 15:43 | 42.50757 | -88.60346 | 11905 ft | 337 kts | 291° |
| 2026-04-23 15:43 | 42.51732 | -88.63226 | 11716 ft | 336 kts | 291° |
| 2026-04-23 15:44 | 42.52704 | -88.66103 | 11523 ft | 335 kts | 291° |
| 2026-04-23 15:44 | 42.53670 | -88.68965 | 11356 ft | 331 kts | 291° |
| 2026-04-23 15:44 | 42.54594 | -88.71692 | 11172 ft | 305 kts | 291° |
| 2026-04-23 15:44 | 42.55455 | -88.74241 | 11042 ft | 302 kts | 290° |
| 2026-04-23 15:45 | 42.56165 | -88.76949 | 10818 ft | 300 kts | 280° |
| 2026-04-23 15:45 | 42.56586 | -88.79673 | 10331 ft | 298 kts | 276° |
| 2026-04-23 15:45 | 42.56953 | -88.82427 | 9913 ft | 296 kts | 276° |
| 2026-04-23 15:45 | 42.57315 | -88.85171 | 9482 ft | 295 kts | 276° |
| 2026-04-23 15:46 | 42.57679 | -88.87893 | 9113 ft | 292 kts | 275° |
| 2026-04-23 15:46 | 42.58040 | -88.90594 | 8712 ft | 289 kts | 275° |
| 2026-04-23 15:46 | 42.58399 | -88.93257 | 8364 ft | 284 kts | 275° |
| 2026-04-23 15:46 | 42.58750 | -88.95839 | 8125 ft | 270 kts | 275° |
| 2026-04-23 15:47 | 42.59080 | -88.98267 | 7835 ft | 253 kts | 273° |
| 2026-04-23 15:47 | 42.59174 | -89.00520 | 7554 ft | 229 kts | 258° |
| 2026-04-23 15:47 | 42.58933 | -89.02624 | 7243 ft | 223 kts | 251° |
| 2026-04-23 15:47 | 42.58228 | -89.04432 | 6917 ft | 215 kts | 226° |
| 2026-04-23 15:48 | 42.57187 | -89.05855 | 6621 ft | 210 kts | 216° |
| 2026-04-23 15:48 | 42.55864 | -89.06562 | 6292 ft | 203 kts | 189° |
| 2026-04-23 15:48 | 42.54486 | -89.06642 | 5955 ft | 194 kts | 182° |
| 2026-04-23 15:48 | 42.53157 | -89.06628 | 5614 ft | 188 kts | 182° |
| 2026-04-23 15:49 | 42.51865 | -89.06598 | 5310 ft | 183 kts | 182° |
| 2026-04-23 15:49 | 42.50630 | -89.06557 | 4968 ft | 174 kts | 181° |
| 2026-04-23 15:49 | 42.49387 | -89.06479 | 4591 ft | 191 kts | 181° |
| 2026-04-23 15:49 | 42.48023 | -89.06445 | 3873 ft | 200 kts | 182° |
| 2026-04-23 15:50 | 42.46641 | -89.06409 | 3264 ft | 195 kts | 182° |
| 2026-04-23 15:50 | 42.45329 | -89.06372 | 2870 ft | 183 kts | 181° |
| 2026-04-23 15:50 | 42.44106 | -89.06331 | 2477 ft | 169 kts | 180° |
| 2026-04-23 15:50 | 42.42943 | -89.06304 | 2127 ft | 166 kts | 180° |
| 2026-04-23 15:51 | 42.41776 | -89.06263 | 1957 ft | 171 kts | 180° |
| 2026-04-23 15:51 | 42.40594 | -89.06307 | 1941 ft | 170 kts | 185° |
| 2026-04-23 15:51 | 42.39422 | -89.06446 | 1948 ft | 169 kts | 186° |
| 2026-04-23 15:51 | 42.38312 | -89.06593 | 1909 ft | 147 kts | 185° |
| 2026-04-23 15:52 | 42.37403 | -89.06702 | 1935 ft | 118 kts | 185° |
| 2026-04-23 15:52 | 42.36611 | -89.06802 | 1945 ft | 113 kts | 186° |
| 2026-04-23 15:52 | 42.35826 | -89.06911 | 1957 ft | 113 kts | 186° |
| 2026-04-23 15:52 | 42.35035 | -89.07016 | 1946 ft | 115 kts | 186° |
| 2026-04-23 15:53 | 42.34242 | -89.07113 | 1947 ft | 114 kts | 185° |
| 2026-04-23 15:53 | 42.33452 | -89.07211 | 1950 ft | 115 kts | 185° |
| 2026-04-23 15:53 | 42.32650 | -89.07309 | 1949 ft | 116 kts | 185° |
| 2026-04-23 15:53 | 42.31845 | -89.07402 | 1957 ft | 116 kts | 185° |
| 2026-04-23 15:54 | 42.31040 | -89.07502 | 1960 ft | 116 kts | 184° |
| 2026-04-23 15:54 | 42.30243 | -89.07555 | 1833 ft | 112 kts | 183° |
| 2026-04-23 15:54 | 42.29462 | -89.07590 | 1825 ft | 113 kts | 184° |
| 2026-04-23 15:54 | 42.28676 | -89.07707 | 1784 ft | 115 kts | 188° |
| 2026-04-23 15:55 | 42.27894 | -89.07899 | 1795 ft | 114 kts | 189° |
| 2026-04-23 15:55 | 42.27125 | -89.08079 | 1708 ft | 111 kts | 190° |
| 2026-04-23 15:55 | 42.26370 | -89.08254 | 1685 ft | 112 kts | 186° |
| 2026-04-23 15:55 | 42.25565 | -89.08354 | 1722 ft | 117 kts | 183° |
| 2026-04-23 15:56 | 42.24754 | -89.08444 | 1526 ft | 118 kts | 184° |
| 2026-04-23 15:56 | 42.23938 | -89.08486 | 1484 ft | 119 kts | 183° |
| 2026-04-23 15:56 | 42.23114 | -89.08594 | 1284 ft | 121 kts | 185° |
| 2026-04-23 15:56 | 42.22551 | -89.08665 | 1168 ft | 124 kts | 179° |
| 2026-04-23 15:57 | 42.21677 | -89.08732 | 1030 ft | 124 kts | 181° |
| 2026-04-23 15:57 | 42.20823 | -89.08846 | 837 ft | 123 kts | 180° |
| 2026-04-23 15:57 | 42.20010 | -89.08921 | 746 ft | 106 kts | 185° |
| 2026-04-23 15:57 | 42.19491 | -89.08997 | 742 ft | 35 kts | 185° |
| 2026-04-23 15:58 | 42.19344 | -89.09008 | 743 ft | 19 kts | 183° |
| 2026-04-23 15:58 | 42.19216 | -89.09023 | 743 ft | 18 kts | 186° |
| 2026-04-23 15:58 | 42.19096 | -89.09038 | 744 ft | 16 kts | 179° |
| 2026-04-23 15:58 | 42.18998 | -89.09053 | 742 ft | 13 kts | 192° |
| 2026-04-23 15:59 | 42.18957 | -89.09146 | 739 ft | 12 kts | 276° |
| 2026-04-23 15:59 | 42.18969 | -89.09238 | 741 ft | 9 kts | 286° |
| 2026-04-23 15:59 | 42.18991 | -89.09268 | 740 ft | 2 kts | 334° |
| 2026-04-23 15:59 | 42.19028 | -89.09274 | 742 ft | 13 kts | 355° |
| 2026-04-23 16:00 | 42.19117 | -89.09270 | 741 ft | 13 kts | 7° |
| 2026-04-23 16:00 | 42.19200 | -89.09263 | 741 ft | 11 kts | 1° |
| 2026-04-23 16:00 | 42.19326 | -89.09245 | 741 ft | 22 kts | 9° |
| 2026-04-23 16:00 | 42.19479 | -89.09228 | 744 ft | 22 kts | 4° |
| 2026-04-23 16:01 | 42.19634 | -89.09218 | 744 ft | 22 kts | 354° |
| 2026-04-23 16:01 | 42.19774 | -89.09295 | 741 ft | 22 kts | 331° |
| 2026-04-23 16:01 | 42.19906 | -89.09378 | 744 ft | 20 kts | 336° |
| 2026-04-23 16:01 | 42.19993 | -89.09497 | 741 ft | 18 kts | 263° |
| 2026-04-23 16:02 | 42.19941 | -89.09646 | 742 ft | 18 kts | 232° |
| 2026-04-23 16:02 | 42.19887 | -89.09795 | 741 ft | 18 kts | 242° |
| 2026-04-23 16:02 | 42.19832 | -89.09940 | 741 ft | 17 kts | 244° |
| 2026-04-23 16:02 | 42.19787 | -89.10082 | 741 ft | 16 kts | 245° |
| 2026-04-23 16:03 | 42.19805 | -89.10175 | 739 ft | 10 kts | 347° |
| 2026-04-23 16:03 | 42.19867 | -89.10153 | 739 ft | 4 kts | 354° |
| 2026-04-23 16:03 | 42.19881 | -89.10170 | 739 ft | 2 kts | 302° |
| 2026-04-23 16:03 | 42.19881 | -89.10181 | 739 ft | 1 kts | 269° |
| 2026-04-23 16:04 | 42.19880 | -89.10184 | 739 ft | 1 kts | 264° |
| 2026-04-23 16:04 | 42.19879 | -89.10197 | 739 ft | 0 kts | 257° |